Time;durP1;ratioP1;P1;durP2;ratioP2;P2;SDS_P1;SDS_P2;PMS_P1;PMS_P2;Temp;Humidity;BMP_temperature;BMP_pressure;BME280_temperature;BME280_humidity;BME280_pressure;Samples;Min_cycle;Max_cycle;Signal;HPM_P1;HPM_P2
2021/06/11 00:00:40;;;;;;;;;;;;;;;;;;5046957;28;20055;-70
2021/06/11 00:03:07;;;;;;;;;;;;;;;;;;5044993;28;19947;-69
2021/06/11 00:05:33;;;;;;;;;;;;;;;;;;5053681;28;19929;-69
2021/06/11 00:08:00;;;;;;;;;;;;;;;;;;5049458;28;19924;-71
2021/06/11 00:10:26;;;;;;;;;;;;;;;;;;5049619;28;19951;-71
2021/06/11 00:12:53;;;;;;;;;;;;;;;;;;5047603;28;19931;-71
2021/06/11 00:15:19;;;;;;;;;;;;;;;;;;5053284;28;20446;-71
2021/06/11 00:17:46;;;;;;;;;;;;;;;;;;5054131;28;20401;-71
2021/06/11 00:20:12;;;;;;;;;;;;;;;;;;5047036;28;19939;-72
2021/06/11 00:22:39;;;;;;;;;;;;;;;;;;5063449;28;19925;-71
2021/06/11 00:25:05;;;;;;;;;;;;;;;;;;5047181;28;20404;-70
2021/06/11 00:27:32;;;;;;;;;;;;;;;;;;5049671;28;19924;-71
2021/06/11 00:29:58;;;;;;;;;;;;;;;;;;5051550;28;20348;-70
2021/06/11 00:32:25;;;;;;;;;;;;;;;;;;5045974;28;19940;-71
2021/06/11 00:34:51;;;;;;;;;;;;;;;;;;5041202;28;19936;-71
2021/06/11 00:37:18;;;;;;;;;;;;;;;;;;5051497;28;19925;-70
2021/06/11 00:39:44;;;;;;;;;;;;;;;;;;5050109;28;19973;-71
2021/06/11 00:42:11;;;;;;;;;;;;;;;;;;5050524;28;20026;-71
2021/06/11 00:44:37;;;;;;;;;;;;;;;;;;5049800;28;19933;-71
2021/06/11 00:47:04;;;;;;;;;;;;;;;;;;5049865;28;20336;-71
2021/06/11 00:49:30;;;;;;;;;;;;;;;;;;5050950;28;19931;-71
2021/06/11 00:51:57;;;;;;;;;;;;;;;;;;5052678;28;20312;-70
2021/06/11 00:54:23;;;;;;;;;;;;;;;;;;5048996;28;19936;-70
2021/06/11 00:56:50;;;;;;;;;;;;;;;;;;5046679;28;19933;-71
2021/06/11 00:59:16;;;;;;;;;;;;;;;;;;5047075;28;19932;-70
2021/06/11 01:01:43;;;;;;;;;;;;;;;;;;5050038;28;19932;-70
2021/06/11 01:04:09;;;;;;;;;;;;;;;;;;5048003;28;19931;-70
2021/06/11 01:06:36;;;;;;;;;;;;;;;;;;5050953;28;19925;-70
2021/06/11 01:09:02;;;;;;;;;;;;;;;;;;5046422;28;19932;-70
2021/06/11 01:11:29;;;;;;;;;;;;;;;;;;5051664;28;19924;-70
2021/06/11 01:13:55;;;;;;;;;;;;;;;;;;5050081;28;19931;-69
2021/06/11 01:16:22;;;;;;;;;;;;;;;;;;5050988;28;19925;-69
2021/06/11 01:18:48;;;;;;;;;;;;;;;;;;5046218;28;21592;-70
2021/06/11 01:21:15;;;;;;;;;;;;;;;;;;5042367;28;20011;-71
2021/06/11 01:23:41;;;;;;;;;;;;;;;;;;5041336;28;20023;-69
2021/06/11 01:26:07;;;;;;;;;;;;;;;;;;5043178;28;20307;-69
2021/06/11 01:28:34;;;;;;;;;;;;;;;;;;5050852;28;20387;-71
2021/06/11 01:31:00;;;;;;;;;;;;;;;;;;5049791;28;19933;-71
2021/06/11 01:33:27;;;;;;;;;;;;;;;;;;5047653;28;19985;-70
2021/06/11 01:35:53;;;;;;;;;;;;;;;;;;5045247;28;19931;-70
2021/06/11 01:38:20;;;;;;;;;;;;;;;;;;5048943;28;19925;-70
2021/06/11 01:40:46;;;;;;;;;;;;;;;;;;5042802;28;19925;-71
2021/06/11 01:43:13;;;;;;;;;;;;;;;;;;5043940;28;19935;-71
2021/06/11 01:45:39;;;;;;;;;;;;;;;;;;5048715;28;19925;-70
2021/06/11 01:48:05;;;;;;;;;;;;;;;;;;5048199;28;20285;-69
2021/06/11 01:50:32;;;;;;;;;;;;;;;;;;5043857;28;19925;-70
2021/06/11 01:52:58;;;;;;;;;;;;;;;;;;5046201;28;19933;-71
2021/06/11 01:55:25;;;;;;;;;;;;;;;;;;5039922;28;20023;-70
2021/06/11 01:57:51;;;;;;;;;;;;;;;;;;5043225;28;19928;-71
2021/06/11 02:00:18;;;;;;;;;;;;;;;;;;5043290;28;19925;-70
2021/06/11 02:02:44;;;;;;;;;;;;;;;;;;5050342;28;19924;-71
2021/06/11 02:05:11;;;;;;;;;;;;;;;;;;5047841;28;20041;-71
2021/06/11 02:07:37;;;;;;;;;;;;;;;;;;5050645;28;20274;-72
2021/06/11 02:10:03;;;;;;;;;;;;;;;;;;5045294;28;19937;-74
2021/06/11 02:12:30;;;;;;;;;;;;;;;;;;5049567;28;20282;-71
2021/06/11 02:14:56;;;;;;;;;;;;;;;;;;5016151;28;778210;-70
2021/06/11 02:17:23;;;;;;;;;;;;;;;;;;5050847;28;20361;-70
2021/06/11 02:19:50;;;;;;;;;;;;;;;;;;5050377;28;20066;-72
2021/06/11 02:22:16;;;;;;;;;;;;;;;;;;5050935;28;19928;-72
2021/06/11 02:24:42;;;;;;;;;;;;;;;;;;5048393;28;19951;-69
2021/06/11 02:27:09;;;;;;;;;;;;;;;;;;5048162;28;19932;-73
2021/06/11 02:29:35;;;;;;;;;;;;;;;;;;5048391;28;19932;-70
2021/06/11 02:32:02;;;;;;;;;;;;;;;;;;5048310;28;19939;-70
2021/06/11 02:34:28;;;;;;;;;;;;;;;;;;5048040;28;19936;-70
2021/06/11 02:36:55;;;;;;;;;;;;;;;;;;5046974;28;19925;-71
2021/06/11 02:39:21;;;;;;;;;;;;;;;;;;5046344;28;19936;-71
2021/06/11 02:41:48;;;;;;;;;;;;;;;;;;5048831;28;19925;-71
2021/06/11 02:44:14;;;;;;;;;;;;;;;;;;5047094;28;20416;-72
2021/06/11 02:46:40;;;;;;;;;;;;;;;;;;5040267;28;19972;-71
2021/06/11 02:49:08;;;;;;;;;;;;;;;;;;5049002;28;19933;-71
2021/06/11 02:51:36;;;;;;;;;;;;;;;;;;5046398;28;19925;-71
2021/06/11 02:54:02;;;;;;;;;;;;;;;;;;5045996;28;20001;-72
2021/06/11 02:56:28;;;;;;;;;;;;;;;;;;5039318;28;20031;-71
2021/06/11 02:58:55;;;;;;;;;;;;;;;;;;5045918;28;19925;-71
2021/06/11 03:01:21;;;;;;;;;;;;;;;;;;5041924;28;19933;-72
2021/06/11 03:03:48;;;;;;;;;;;;;;;;;;5041786;28;19931;-71
2021/06/11 03:06:14;;;;;;;;;;;;;;;;;;5044473;28;19924;-71
2021/06/11 03:08:42;;;;;;;;;;;;;;;;;;5044614;28;20028;-71
2021/06/11 03:11:08;;;;;;;;;;;;;;;;;;5048277;28;19936;-71
2021/06/11 03:13:35;;;;;;;;;;;;;;;;;;5059905;22;19975;-65
2021/06/11 03:16:03;;;;;;;;;;;;;;;;;;5056724;28;19924;-65
2021/06/11 03:18:29;;;;;;;;;;;;;;;;;;5056150;28;19979;-65
2021/06/11 03:20:55;;;;;;;;;;;;;;;;;;5052015;28;19932;-65
2021/06/11 03:23:22;;;;;;;;;;;;;;;;;;5050035;28;19924;-65
2021/06/11 03:25:48;;;;;;;;;;;;;;;;;;5031974;28;20400;-64
2021/06/11 03:28:15;;;;;;;;;;;;;;;;;;5033784;28;19925;-64
2021/06/11 03:30:41;;;;;;;;;;;;;;;;;;5031330;28;19931;-64
2021/06/11 03:33:08;;;;;;;;;;;;;;;;;;5042781;28;20291;-65
2021/06/11 03:35:34;;;;;;;;;;;;;;;;;;5036619;28;19926;-64
2021/06/11 03:38:01;;;;;;;;;;;;;;;;;;5041365;28;19951;-64
2021/06/11 03:40:27;;;;;;;;;;;;;;;;;;5043460;28;19932;-64
2021/06/11 03:42:54;;;;;;;;;;;;;;;;;;5042951;28;19925;-65
2021/06/11 03:45:20;;;;;;;;;;;;;;;;;;5043622;28;19932;-64
2021/06/11 03:47:46;;;;;;;;;;;;;;;;;;5039864;28;19931;-65
2021/06/11 03:50:13;;;;;;;;;;;;;;;;;;5042607;28;19925;-64
2021/06/11 03:52:39;;;;;;;;;;;;;;;;;;5046888;28;19931;-64
2021/06/11 03:55:06;;;;;;;;;;;;;;;;;;5042088;28;20059;-64
2021/06/11 03:57:32;;;;;;;;;;;;;;;;;;5045959;28;19937;-64
2021/06/11 03:59:59;;;;;;;;;;;;;;;;;;5037974;28;19925;-64
2021/06/11 04:02:25;;;;;;;;;;;;;;;;;;5040858;28;20317;-64
2021/06/11 04:04:52;;;;;;;;;;;;;;;;;;5038731;28;20462;-64
2021/06/11 04:07:18;;;;;;;;;;;;;;;;;;5044454;28;19970;-64
2021/06/11 04:09:45;;;;;;;;;;;;;;;;;;5040421;28;20004;-64
2021/06/11 04:12:11;;;;;;;;;;;;;;;;;;5041430;28;20189;-64
2021/06/11 04:14:38;;;;;;;;;;;;;;;;;;5038110;28;19956;-64
2021/06/11 04:17:04;;;;;;;;;;;;;;;;;;5037563;28;20142;-64
2021/06/11 04:19:31;;;;;;;;;;;;;;;;;;5037168;28;20060;-64
2021/06/11 04:21:57;;;;;;;;;;;;;;;;;;5046728;28;19932;-64
2021/06/11 04:24:24;;;;;;;;;;;;;;;;;;5038126;28;19948;-64
2021/06/11 04:26:50;;;;;;;;;;;;;;;;;;5038647;28;19972;-64
2021/06/11 04:29:17;;;;;;;;;;;;;;;;;;5037679;28;19974;-64
2021/06/11 04:31:44;;;;;;;;;;;;;;;;;;5035628;28;19948;-64
2021/06/11 04:34:10;;;;;;;;;;;;;;;;;;5045671;28;19932;-64
2021/06/11 04:36:36;;;;;;;;;;;;;;;;;;5039920;28;19925;-64
2021/06/11 04:39:03;;;;;;;;;;;;;;;;;;5039157;28;19937;-64
2021/06/11 04:41:30;;;;;;;;;;;;;;;;;;5035676;28;19932;-64
2021/06/11 04:43:56;;;;;;;;;;;;;;;;;;5036777;28;19924;-64
2021/06/11 04:46:22;;;;;;;;;;;;;;;;;;5033235;28;19944;-64
2021/06/11 04:48:49;;;;;;;;;;;;;;;;;;5041029;28;20301;-65
2021/06/11 04:51:15;;;;;;;;;;;;;;;;;;5040304;28;19933;-64
2021/06/11 04:53:42;;;;;;;;;;;;;;;;;;5040175;28;20221;-65
2021/06/11 04:56:08;;;;;;;;;;;;;;;;;;5040765;28;19940;-63
2021/06/11 04:58:35;;;;;;;;;;;;;;;;;;5038692;28;20462;-65
2021/06/11 05:01:01;;;;;;;;;;;;;;;;;;5036234;28;19951;-63
2021/06/11 05:03:28;;;;;;;;;;;;;;;;;;5040532;28;20332;-64
2021/06/11 05:05:54;;;;;;;;;;;;;;;;;;5040043;28;20311;-63
2021/06/11 05:08:21;;;;;;;;;;;;;;;;;;5041898;28;20549;-63
2021/06/11 05:10:47;;;;;;;;;;;;;;;;;;5036161;28;19978;-63
2021/06/11 05:13:14;;;;;;;;;;;;;;;;;;5038787;28;19925;-63
2021/06/11 05:15:40;;;;;;;;;;;;;;;;;;5038738;28;20451;-66
2021/06/11 05:18:07;;;;;;;;;;;;;;;;;;5038155;28;20277;-66
2021/06/11 05:20:33;;;;;;;;;;;;;;;;;;5042127;28;20113;-65
2021/06/11 05:23:00;;;;;;;;;;;;;;;;;;5040001;28;20011;-65
2021/06/11 05:25:26;;;;;;;;;;;;;;;;;;5038460;28;21417;-65
2021/06/11 05:27:53;;;;;;;;;;;;;;;;;;5037885;28;20008;-65
2021/06/11 05:30:19;;;;;;;;;;;;;;;;;;5040449;28;20180;-65
2021/06/11 05:32:45;;;;;;;;;;;;;;;;;;5035550;28;19933;-65
2021/06/11 05:35:12;;;;;;;;;;;;;;;;;;5035863;28;19925;-65
2021/06/11 05:37:38;;;;;;;;;;;;;;;;;;5039065;28;19924;-65
2021/06/11 05:40:05;;;;;;;;;;;;;;;;;;5031453;28;19936;-62
2021/06/11 05:42:31;;;;;;;;;;;;;;;;;;5032510;28;19932;-64
2021/06/11 05:44:58;;;;;;;;;;;;;;;;;;5032354;28;19931;-65
2021/06/11 05:47:24;;;;;;;;;;;;;;;;;;5034342;28;20277;-64
2021/06/11 05:49:51;;;;;;;;;;;;;;;;;;5042305;28;19932;-64
2021/06/11 05:52:17;;;;;;;;;;;;;;;;;;5035431;28;20407;-65
2021/06/11 05:54:44;;;;;;;;;;;;;;;;;;5037368;28;19933;-66
2021/06/11 05:57:10;;;;;;;;;;;;;;;;;;5039136;28;19925;-65
2021/06/11 05:59:37;;;;;;;;;;;;;;;;;;5040719;28;19925;-66
2021/06/11 06:02:03;;;;;;;;;;;;;;;;;;5032343;28;19925;-66
2021/06/11 06:04:30;;;;;;;;;;;;;;;;;;5037184;28;19928;-65
2021/06/11 06:06:56;;;;;;;;;;;;;;;;;;5040223;28;19924;-65
2021/06/11 06:09:23;;;;;;;;;;;;;;;;;;5041269;28;19955;-65
2021/06/11 06:11:49;;;;;;;;;;;;;;;;;;5042250;28;20373;-66
2021/06/11 06:14:16;;;;;;;;;;;;;;;;;;5042648;28;19935;-66
2021/06/11 06:16:42;;;;;;;;;;;;;;;;;;5044135;28;19928;-65
2021/06/11 06:19:09;;;;;;;;;;;;;;;;;;5032900;28;20328;-64
2021/06/11 06:21:35;;;;;;;;;;;;;;;;;;5032836;28;20307;-65
2021/06/11 06:24:02;;;;;;;;;;;;;;;;;;5049229;28;19924;-64
2021/06/11 06:26:28;;;;;;;;;;;;;;;;;;5053562;28;20026;-66
2021/06/11 06:28:54;;;;;;;;;;;;;;;;;;5041681;28;19967;-65
2021/06/11 06:31:21;;;;;;;;;;;;;;;;;;5040311;28;20372;-66
2021/06/11 06:33:47;;;;;;;;;;;;;;;;;;5034873;28;19931;-63
2021/06/11 06:36:14;;;;;;;;;;;;;;;;;;5036102;28;19954;-65
2021/06/11 06:38:40;;;;;;;;;;;;;;;;;;5031788;28;19929;-65
2021/06/11 06:41:07;;;;;;;;;;;;;;;;;;5033942;28;20063;-66
2021/06/11 06:43:33;;;;;;;;;;;;;;;;;;5034907;28;20011;-65
2021/06/11 06:46:00;;;;;;;;;;;;;;;;;;5033096;28;19929;-64
2021/06/11 06:48:26;;;;;;;;;;;;;;;;;;5032825;28;19936;-64
2021/06/11 06:50:52;;;;;;;;;;;;;;;;;;5030938;28;19951;-66
2021/06/11 06:53:19;;;;;;;;;;;;;;;;;;5033460;28;19933;-66
2021/06/11 06:55:45;;;;;;;;;;;;;;;;;;5043450;28;19933;-64
2021/06/11 06:58:12;;;;;;;;;;;;;;;;;;5038244;28;19928;-64
2021/06/11 07:00:38;;;;;;;;;;;;;;;;;;5034961;28;19932;-65
2021/06/11 07:03:05;;;;;;;;;;;;;;;;;;5036702;28;19935;-65
2021/06/11 07:05:31;;;;;;;;;;;;;;;;;;5038280;28;19925;-65
2021/06/11 07:07:58;;;;;;;;;;;;;;;;;;5043079;28;20372;-64
2021/06/11 07:10:24;;;;;;;;;;;;;;;;;;5040019;28;20575;-65
2021/06/11 07:12:51;;;;;;;;;;;;;;;;;;5042873;28;19994;-65
2021/06/11 07:15:17;;;;;;;;;;;;;;;;;;5036266;28;19997;-65
2021/06/11 07:17:44;;;;;;;;;;;;;;;;;;5034128;28;20000;-66
2021/06/11 07:20:10;;;;;;;;;;;;;;;;;;5033041;28;20016;-65
2021/06/11 07:22:37;;;;;;;;;;;;;;;;;;5036177;28;19925;-65
2021/06/11 07:25:05;;;;;;;;;;;;;;;;;;5037795;28;19924;-66
2021/06/11 07:27:32;;;;;;;;;;;;;;;;;;5033031;28;19936;-65
2021/06/11 07:29:59;;;;;;;;;;;;;;;;;;5035969;28;19933;-65
2021/06/11 07:32:25;;;;;;;;;;;;;;;;;;5033629;28;20373;-65
2021/06/11 07:34:52;;;;;;;;;;;;;;;;;;5042043;28;19925;-65
2021/06/11 07:37:18;;;;;;;;;;;;;;;;;;5033725;28;19933;-66
2021/06/11 07:39:45;;;;;;;;;;;;;;;;;;5033586;28;20384;-66
2021/06/11 07:42:12;;;;;;;;;;;;;;;;;;5036033;28;19940;-66
2021/06/11 07:44:38;;;;;;;;;;;;;;;;;;5032534;28;20301;-65
2021/06/11 07:47:05;;;;;;;;;;;;;;;;;;5032062;28;19925;-68
2021/06/11 07:49:32;;;;;;;;;;;;;;;;;;5034807;28;19933;-66
2021/06/11 07:51:58;;;;;;;;;;;;;;;;;;5043596;28;20403;-66
2021/06/11 07:54:25;;;;;;;;;;;;;;;;;;5033437;28;19933;-66
2021/06/11 07:56:51;;;;;;;;;;;;;;;;;;5041722;28;20246;-66
2021/06/11 07:59:20;;;;;;;;;;;;;;;;;;5031147;28;20304;-65
2021/06/11 08:01:46;;;;;;;;;;;;;;;;;;5035642;28;19941;-65
2021/06/11 08:04:13;;;;;;;;;;;;;;;;;;5034443;28;19928;-65
2021/06/11 08:06:39;;;;;;;;;;;;;;;;;;5036004;28;20606;-64
2021/06/11 08:09:06;;;;;;;;;;;;;;;;;;5033871;28;19925;-63
2021/06/11 08:11:32;;;;;;;;;;;;;;;;;;5030735;28;20300;-64
2021/06/11 08:13:59;;;;;;;;;;;;;;;;;;5032109;28;19929;-64
2021/06/11 08:16:25;;;;;;;;;;;;;;;;;;5035908;28;19929;-64
2021/06/11 08:18:52;;;;;;;;;;;;;;;;;;5035402;28;19979;-64
2021/06/11 08:21:18;;;;;;;;;;;;;;;;;;5031741;28;19929;-65
2021/06/11 08:23:45;;;;;;;;;;;;;;;;;;5033398;28;19935;-65
2021/06/11 08:26:11;;;;;;;;;;;;;;;;;;5047256;28;19925;-65
2021/06/11 08:28:38;;;;;;;;;;;;;;;;;;5044394;28;20040;-65
2021/06/11 08:31:05;;;;;;;;;;;;;;;;;;5042110;28;20438;-65
2021/06/11 08:33:31;;;;;;;;;;;;;;;;;;5038602;28;19925;-65
2021/06/11 08:35:58;;;;;;;;;;;;;;;;;;5042843;28;19994;-65
2021/06/11 08:38:24;;;;;;;;;;;;;;;;;;5043584;28;19980;-65
2021/06/11 08:40:51;;;;;;;;;;;;;;;;;;5040908;28;19924;-65
2021/06/11 08:43:17;;;;;;;;;;;;;;;;;;5037851;28;19925;-66
2021/06/11 08:45:44;;;;;;;;;;;;;;;;;;5037072;28;19925;-64
2021/06/11 08:48:10;;;;;;;;;;;;;;;;;;5040853;28;19924;-65
2021/06/11 08:50:37;;;;;;;;;;;;;;;;;;5043316;28;20011;-65
2021/06/11 08:53:03;;;;;;;;;;;;;;;;;;5046963;28;20012;-65
2021/06/11 08:55:30;;;;;;;;;;;;;;;;;;5053020;28;20356;-65
2021/06/11 08:57:56;;;;;;;;;;;;;;;;;;5052526;28;19932;-65
2021/06/11 09:00:23;;;;;;;;;;;;;;;;;;5053612;28;19924;-66
2021/06/11 09:02:49;;;;;;;;;;;;;;;;;;5056614;28;19931;-65
2021/06/11 09:05:15;;;;;;;;;;;;;;;;;;5055259;28;19931;-64
2021/06/11 09:07:42;;;;;;;;;;;;;;;;;;5055706;28;19925;-65
2021/06/11 09:10:10;;;;;;;;;;;;;;;;;;5048152;28;20012;-65
2021/06/11 09:12:36;;;;;;;;;;;;;;;;;;5053513;28;19928;-65
2021/06/11 09:15:03;;;;;;;;;;;;;;;;;;5053912;28;20023;-65
2021/06/11 09:17:29;;;;;;;;;;;;;;;;;;5050102;28;20028;-65
2021/06/11 09:19:56;;;;;;;;;;;;;;;;;;5054920;28;19925;-65
2021/06/11 09:22:22;;;;;;;;;;;;;;;;;;5052231;28;19925;-65
2021/06/11 09:24:49;;;;;;;;;;;;;;;;;;5053304;28;19933;-65
2021/06/11 09:27:17;;;;;;;;;;;;;;;;;;5055738;28;20270;-65
2021/06/11 09:29:45;;;;;;;;;;;;;;;;;;5048830;28;19972;-65
2021/06/11 09:32:11;;;;;;;;;;;;;;;;;;5048625;28;20327;-66
2021/06/11 09:34:37;;;;;;;;;;;;;;;;;;5053532;28;20304;-66
2021/06/11 09:37:04;;;;;;;;;;;;;;;;;;5057901;28;19928;-66
2021/06/11 09:39:30;;;;;;;;;;;;;;;;;;5049158;28;19925;-66
2021/06/11 09:41:57;;;;;;;;;;;;;;;;;;5057751;28;19925;-66
2021/06/11 09:44:23;;;;;;;;;;;;;;;;;;5048277;28;19932;-66
2021/06/11 09:46:50;;;;;;;;;;;;;;;;;;5047462;28;19928;-65
2021/06/11 09:49:17;;;;;;;;;;;;;;;;;;5041597;28;20479;-65
2021/06/11 09:51:43;;;;;;;;;;;;;;;;;;5054808;28;20377;-66
2021/06/11 09:54:09;;;;;;;;;;;;;;;;;;5051895;28;20019;-66
2021/06/11 09:56:36;;;;;;;;;;;;;;;;;;5056929;28;19929;-66
2021/06/11 09:59:04;;;;;;;;;;;;;;;;;;5049837;28;19925;-66
2021/06/11 10:01:32;;;;;;;;;;;;;;;;;;5048935;28;20388;-66
2021/06/11 10:03:59;;;;;;;;;;;;;;;;;;5051793;28;20303;-66
2021/06/11 10:06:27;;;;;;;;;;;;;;;;;;5048545;28;19925;-65
2021/06/11 10:08:53;;;;;;;;;;;;;;;;;;5050361;28;20407;-65
2021/06/11 10:11:21;;;;;;;;;;;;;;;;;;5054923;28;19928;-66
2021/06/11 10:13:48;;;;;;;;;;;;;;;;;;5054968;28;19925;-66
2021/06/11 10:16:14;;;;;;;;;;;;;;;;;;5050659;28;19933;-66
2021/06/11 10:18:41;;;;;;;;;;;;;;;;;;5043889;28;19925;-65
2021/06/11 10:21:07;;;;;;;;;;;;;;;;;;5042555;28;19929;-64
2021/06/11 10:23:34;;;;;;;;;;;;;;;;;;5041945;28;19970;-65
2021/06/11 10:26:01;;;;;;;;;;;;;;;;;;5040275;28;20680;-65
2021/06/11 10:28:28;;;;;;;;;;;;;;;;;;5044874;28;19931;-64
2021/06/11 10:30:54;;;;;;;;;;;;;;;;;;5044875;28;20423;-64
2021/06/11 10:33:21;;;;;;;;;;;;;;;;;;5047817;28;19925;-65
2021/06/11 10:35:48;;;;;;;;;;;;;;;;;;5047955;28;19932;-65
2021/06/11 10:38:14;;;;;;;;;;;;;;;;;;5048261;28;20236;-65
2021/06/11 10:40:41;;;;;;;;;;;;;;;;;;5051252;28;19928;-65
2021/06/11 10:43:07;;;;;;;;;;;;;;;;;;5054150;28;20440;-67
2021/06/11 10:45:34;;;;;;;;;;;;;;;;;;5044632;28;19924;-65
2021/06/11 10:48:00;;;;;;;;;;;;;;;;;;5041709;28;19934;-66
2021/06/11 10:50:27;;;;;;;;;;;;;;;;;;5041059;28;20000;-65
2021/06/11 10:52:54;;;;;;;;;;;;;;;;;;5050345;28;19925;-65
2021/06/11 10:55:21;;;;;;;;;;;;;;;;;;5048031;28;19948;-65
2021/06/11 10:57:47;;;;;;;;;;;;;;;;;;5048969;28;20347;-65
2021/06/11 11:00:14;;;;;;;;;;;;;;;;;;5047484;28;20005;-65
2021/06/11 11:02:40;;;;;;;;;;;;;;;;;;5053387;28;19970;-65
2021/06/11 11:05:07;;;;;;;;;;;;;;;;;;5051210;28;19950;-64
2021/06/11 11:07:34;;;;;;;;;;;;;;;;;;5051654;28;20488;-65
2021/06/11 11:10:01;;;;;;;;;;;;;;;;;;5050605;28;20296;-65
2021/06/11 11:12:28;;;;;;;;;;;;;;;;;;5054380;28;20009;-65
2021/06/11 11:14:54;;;;;;;;;;;;;;;;;;5050785;28;19924;-64
2021/06/11 11:17:21;;;;;;;;;;;;;;;;;;5054247;28;20372;-65
2021/06/11 11:19:47;;;;;;;;;;;;;;;;;;5056027;28;19931;-65
2021/06/11 11:22:14;;;;;;;;;;;;;;;;;;5048718;28;19933;-65
2021/06/11 11:24:40;;;;;;;;;;;;;;;;;;5049769;28;19978;-64
2021/06/11 11:27:07;;;;;;;;;;;;;;;;;;5043315;28;19925;-64
2021/06/11 11:29:33;;;;;;;;;;;;;;;;;;5039707;28;19925;-64
2021/06/11 11:32:00;;;;;;;;;;;;;;;;;;5048084;28;20020;-64
2021/06/11 11:34:27;;;;;;;;;;;;;;;;;;5039493;28;19932;-64
2021/06/11 11:36:53;;;;;;;;;;;;;;;;;;5044309;28;20023;-64
2021/06/11 11:39:20;;;;;;;;;;;;;;;;;;5045596;28;19931;-64
2021/06/11 11:41:48;;;;;;;;;;;;;;;;;;5045149;28;20361;-65
2021/06/11 11:44:14;;;;;;;;;;;;;;;;;;5036084;28;19929;-64
2021/06/11 11:46:41;;;;;;;;;;;;;;;;;;5043378;28;19932;-64
2021/06/11 11:49:07;;;;;;;;;;;;;;;;;;5040230;28;19937;-64
2021/06/11 11:51:34;;;;;;;;;;;;;;;;;;5044294;28;20594;-64
2021/06/11 11:54:02;;;;;;;;;;;;;;;;;;5048213;28;19947;-64
2021/06/11 11:56:28;;;;;;;;;;;;;;;;;;5044815;28;20274;-63
2021/06/11 11:58:55;;;;;;;;;;;;;;;;;;5044323;28;19929;-65
2021/06/11 12:01:21;;;;;;;;;;;;;;;;;;5045832;28;19951;-65
2021/06/11 12:03:48;;;;;;;;;;;;;;;;;;5045045;28;20023;-64
2021/06/11 12:06:14;;;;;;;;;;;;;;;;;;5053021;28;20423;-63
2021/06/11 12:08:41;;;;;;;;;;;;;;;;;;5061479;28;19925;-63
2021/06/11 12:11:07;;;;;;;;;;;;;;;;;;5057706;28;19925;-66
2021/06/11 12:13:34;;;;;;;;;;;;;;;;;;5048348;28;19979;-64
2021/06/11 12:16:02;;;;;;;;;;;;;;;;;;5041689;28;19933;-66
2021/06/11 12:18:29;;;;;;;;;;;;;;;;;;5048098;28;19970;-64
2021/06/11 12:20:55;;;;;;;;;;;;;;;;;;5043858;28;19971;-65
2021/06/11 12:23:22;;;;;;;;;;;;;;;;;;5044708;28;19933;-65
2021/06/11 12:25:48;;;;;;;;;;;;;;;;;;5052598;28;20342;-65
2021/06/11 12:28:15;;;;;;;;;;;;;;;;;;5046157;28;19925;-65
2021/06/11 12:30:44;;;;;;;;;;;;;;;;;;5045125;28;20082;-66
2021/06/11 12:33:11;;;;;;;;;;;;;;;;;;5046979;28;19960;-65
2021/06/11 12:35:37;;;;;;;;;;;;;;;;;;5045637;28;19925;-64
2021/06/11 12:38:04;;;;;;;;;;;;;;;;;;5053188;28;20316;-64
2021/06/11 12:40:30;;;;;;;;;;;;;;;;;;5048632;28;19940;-65
2021/06/11 12:43:03;;;;;;;;;;;;;;;;;;5046978;28;19956;-65
2021/06/11 12:45:30;;;;;;;;;;;;;;;;;;5049196;28;19925;-65
2021/06/11 12:47:56;;;;;;;;;;;;;;;;;;5055301;28;19931;-65
2021/06/11 12:50:23;;;;;;;;;;;;;;;;;;5044476;28;19948;-64
2021/06/11 12:52:49;;;;;;;;;;;;;;;;;;5045849;28;19986;-64
2021/06/11 12:55:16;;;;;;;;;;;;;;;;;;5055507;28;19925;-65
2021/06/11 12:57:42;;;;;;;;;;;;;;;;;;5050041;28;19960;-64
2021/06/11 13:00:09;;;;;;;;;;;;;;;;;;5045009;28;19928;-65
2021/06/11 13:02:35;;;;;;;;;;;;;;;;;;5048995;28;20423;-66
2021/06/11 13:05:02;;;;;;;;;;;;;;;;;;5049186;28;19955;-66
2021/06/11 13:07:28;;;;;;;;;;;;;;;;;;5050207;28;20459;-64
2021/06/11 13:09:55;;;;;;;;;;;;;;;;;;5043449;28;21099;-65
2021/06/11 13:12:21;;;;;;;;;;;;;;;;;;5046698;28;19978;-65
2021/06/11 13:14:48;;;;;;;;;;;;;;;;;;5044482;28;20051;-65
2021/06/11 13:17:14;;;;;;;;;;;;;;;;;;5053643;28;20316;-65
2021/06/11 13:19:41;;;;;;;;;;;;;;;;;;5047381;28;19924;-64
2021/06/11 13:22:07;;;;;;;;;;;;;;;;;;5050733;28;19974;-64
2021/06/11 13:24:34;;;;;;;;;;;;;;;;;;5047344;28;19925;-66
2021/06/11 13:27:00;;;;;;;;;;;;;;;;;;5041620;28;19931;-65
2021/06/11 13:29:27;;;;;;;;;;;;;;;;;;5041444;28;20415;-65
2021/06/11 13:31:53;;;;;;;;;;;;;;;;;;5042392;28;20392;-65
2021/06/11 13:34:19;;;;;;;;;;;;;;;;;;5050629;28;20406;-65
2021/06/11 13:36:46;;;;;;;;;;;;;;;;;;5047272;28;20047;-66
2021/06/11 13:39:12;;;;;;;;;;;;;;;;;;5047021;28;20292;-65
2021/06/11 13:41:39;;;;;;;;;;;;;;;;;;5046008;28;20317;-65
2021/06/11 13:44:05;;;;;;;;;;;;;;;;;;5045223;28;20014;-65
2021/06/11 13:46:32;;;;;;;;;;;;;;;;;;5043611;28;20216;-65
2021/06/11 13:48:58;;;;;;;;;;;;;;;;;;5049882;28;19925;-65
2021/06/11 13:51:25;;;;;;;;;;;;;;;;;;5039116;28;20098;-64
2021/06/11 13:53:51;;;;;;;;;;;;;;;;;;5046742;28;19993;-64
2021/06/11 13:56:18;;;;;;;;;;;;;;;;;;5043022;28;19924;-64
2021/06/11 13:58:45;;;;;;;;;;;;;;;;;;5043810;28;19929;-65
2021/06/11 14:01:11;;;;;;;;;;;;;;;;;;5042643;28;19975;-65
2021/06/11 14:03:38;;;;;;;;;;;;;;;;;;5052890;28;19924;-65
2021/06/11 14:06:04;;;;;;;;;;;;;;;;;;5047203;28;20350;-65
2021/06/11 14:08:31;;;;;;;;;;;;;;;;;;5045834;28;20028;-66
2021/06/11 14:10:57;;;;;;;;;;;;;;;;;;5041813;28;19970;-66
2021/06/11 14:13:24;;;;;;;;;;;;;;;;;;5046532;28;19933;-66
2021/06/11 14:15:50;;;;;;;;;;;;;;;;;;5044541;28;19928;-65
2021/06/11 14:18:17;;;;;;;;;;;;;;;;;;5052097;28;19932;-67
2021/06/11 14:20:44;;;;;;;;;;;;;;;;;;5047206;28;19979;-67
2021/06/11 14:23:11;;;;;;;;;;;;;;;;;;5041288;28;20083;-66
2021/06/11 14:25:42;;;;;;;;;;;;;;;;;;5046487;28;19928;-65
2021/06/11 14:28:09;;;;;;;;;;;;;;;;;;5036319;28;19925;-64
2021/06/11 14:30:35;;;;;;;;;;;;;;;;;;5037055;28;20019;-64
2021/06/11 14:33:01;;;;;;;;;;;;;;;;;;5038744;28;19967;-66
2021/06/11 14:35:30;;;;;;;;;;;;;;;;;;5044986;28;19924;-64
2021/06/11 14:37:57;;;;;;;;;;;;;;;;;;5041210;28;19925;-65
2021/06/11 14:40:24;;;;;;;;;;;;;;;;;;5042577;28;19929;-64
2021/06/11 14:42:51;;;;;;;;;;;;;;;;;;5042772;28;19924;-66
2021/06/11 14:45:17;;;;;;;;;;;;;;;;;;5042594;28;19924;-65
2021/06/11 14:47:44;;;;;;;;;;;;;;;;;;5039063;28;20341;-66
2021/06/11 14:50:10;;;;;;;;;;;;;;;;;;5038494;28;19925;-64
2021/06/11 14:52:42;;;;;;;;;;;;;;;;;;5045422;28;19947;-66
2021/06/11 14:55:08;;;;;;;;;;;;;;;;;;5038914;28;19932;-66
2021/06/11 14:57:35;;;;;;;;;;;;;;;;;;5040352;28;19980;-65
2021/06/11 15:00:01;;;;;;;;;;;;;;;;;;5034288;28;19932;-64
2021/06/11 15:02:28;;;;;;;;;;;;;;;;;;5042683;28;19955;-66
2021/06/11 15:04:54;;;;;;;;;;;;;;;;;;5039758;28;19929;-65
2021/06/11 15:07:21;;;;;;;;;;;;;;;;;;5036024;28;19925;-65
2021/06/11 15:09:47;;;;;;;;;;;;;;;;;;5042479;28;19925;-65
2021/06/11 15:12:14;;;;;;;;;;;;;;;;;;5038391;28;19933;-65
2021/06/11 15:14:40;;;;;;;;;;;;;;;;;;5037345;28;19925;-65
2021/06/11 15:17:06;;;;;;;;;;;;;;;;;;5039226;28;19985;-65
2021/06/11 15:19:33;;;;;;;;;;;;;;;;;;5037009;28;19931;-65
2021/06/11 15:21:59;;;;;;;;;;;;;;;;;;5034979;28;19933;-65
2021/06/11 15:24:28;;;;;;;;;;;;;;;;;;5036245;28;19925;-65
2021/06/11 15:26:54;;;;;;;;;;;;;;;;;;5034786;28;19982;-66
2021/06/11 15:29:21;;;;;;;;;;;;;;;;;;5038208;28;19928;-65
2021/06/11 15:31:47;;;;;;;;;;;;;;;;;;5039351;28;19925;-65
2021/06/11 15:34:14;;;;;;;;;;;;;;;;;;5037585;28;20615;-66
2021/06/11 15:36:40;;;;;;;;;;;;;;;;;;5040433;28;20020;-66
2021/06/11 15:39:07;;;;;;;;;;;;;;;;;;5041256;28;20333;-65
2021/06/11 15:41:33;;;;;;;;;;;;;;;;;;5038986;28;20386;-65
2021/06/11 15:44:00;;;;;;;;;;;;;;;;;;5042058;28;20024;-66
2021/06/11 15:46:26;;;;;;;;;;;;;;;;;;5042862;28;20023;-66
2021/06/11 15:48:52;;;;;;;;;;;;;;;;;;5034333;28;19933;-65
2021/06/11 15:51:19;;;;;;;;;;;;;;;;;;5046469;28;19933;-65
2021/06/11 15:53:45;;;;;;;;;;;;;;;;;;5048691;28;19929;-65
2021/06/11 15:56:12;;;;;;;;;;;;;;;;;;5042786;28;19933;-64
2021/06/11 15:58:38;;;;;;;;;;;;;;;;;;5046840;28;20411;-64
2021/06/11 16:01:05;;;;;;;;;;;;;;;;;;5045226;28;20377;-66
2021/06/11 16:03:31;;;;;;;;;;;;;;;;;;5050382;28;20008;-65
2021/06/11 16:05:58;;;;;;;;;;;;;;;;;;5061473;28;20266;-65
2021/06/11 16:08:25;;;;;;;;;;;;;;;;;;5058045;28;19925;-65
2021/06/11 16:10:51;;;;;;;;;;;;;;;;;;5043106;28;20036;-66
2021/06/11 16:13:18;;;;;;;;;;;;;;;;;;5043736;28;19979;-65
2021/06/11 16:15:44;;;;;;;;;;;;;;;;;;5057812;28;19935;-63
2021/06/11 16:18:11;;;;;;;;;;;;;;;;;;5052117;28;20016;-65
2021/06/11 16:20:37;;;;;;;;;;;;;;;;;;5057063;28;19977;-64
2021/06/11 16:23:04;;;;;;;;;;;;;;;;;;5056523;28;20000;-64
2021/06/11 16:25:30;;;;;;;;;;;;;;;;;;5046613;28;19962;-65
2021/06/11 16:27:56;;;;;;;;;;;;;;;;;;5040076;28;19933;-65
2021/06/11 16:30:24;;;;;;;;;;;;;;;;;;5053471;28;19931;-65
2021/06/11 16:32:51;;;;;;;;;;;;;;;;;;5040963;28;19987;-65
2021/06/11 16:35:17;;;;;;;;;;;;;;;;;;5041712;28;19924;-65
2021/06/11 16:37:43;;;;;;;;;;;;;;;;;;5047331;28;20349;-64
2021/06/11 16:40:10;;;;;;;;;;;;;;;;;;5044384;28;20009;-64